Time;durP1;ratioP1;P1;durP2;ratioP2;P2;SDS_P1;SDS_P2;PMS_P1;PMS_P2;Temp;Humidity;BMP_temperature;BMP_pressure;BME280_temperature;BME280_humidity;BME280_pressure;Samples;Min_cycle;Max_cycle;Signal;HPM_P1;HPM_P2
2022/11/04 00:01:03;;;;;;;;;;;18.10;55.10;;;;;;5053554;28;19909;-75
2022/11/04 00:03:29;;;;;;;;;;;18.10;55.10;;;;;;5052030;28;19938;-75
2022/11/04 00:05:54;;;;;;;;;;;18.00;55.00;;;;;;5052143;28;19925;-75
2022/11/04 00:08:23;;;;;;;;;;;18.10;55.00;;;;;;5052691;28;19908;-75
2022/11/04 00:13:36;;;;;;;;;;;18.00;55.10;;;;;;5051859;28;20383;-74
2022/11/04 00:18:46;;;;;;;;;;;18.00;55.20;;;;;;5053219;28;19962;-75
2022/11/04 00:29:24;;;;;;;;;;;18.10;55.10;;;;;;5052905;28;19920;-75
2022/11/04 00:34:33;;;;;;;;;;;18.00;55.20;;;;;;5053130;28;19932;-75
2022/11/04 00:36:59;;;;;;;;;;;18.00;55.20;;;;;;5051856;28;19908;-75
2022/11/04 00:39:24;;;;;;;;;;;18.00;55.30;;;;;;5040575;28;19915;-75
2022/11/04 00:41:49;;;;;;;;;;;18.00;55.30;;;;;;5052592;28;20356;-75
2022/11/04 00:44:15;;;;;;;;;;;18.00;55.20;;;;;;5051143;28;20299;-75
2022/11/04 00:46:40;;;;;;;;;;;18.00;55.20;;;;;;5051685;28;20364;-75
2022/11/04 00:49:06;;;;;;;;;;;18.00;55.20;;;;;;5034853;28;19913;-75
2022/11/04 00:51:31;;;;;;;;;;;18.00;55.10;;;;;;5052755;28;19912;-75
2022/11/04 00:53:57;;;;;;;;;;;18.00;55.10;;;;;;5052911;28;20007;-75
2022/11/04 00:56:22;;;;;;;;;;;18.00;55.20;;;;;;5034353;28;19908;-75
2022/11/04 00:58:48;;;;;;;;;;;18.00;55.20;;;;;;5052216;28;20421;-75
2022/11/04 01:01:17;;;;;;;;;;;17.90;55.30;;;;;;5051489;28;19915;-75
2022/11/04 01:03:43;;;;;;;;;;;18.00;55.40;;;;;;5052209;28;19908;-75
2022/11/04 01:06:09;;;;;;;;;;;18.00;55.20;;;;;;5057245;28;19932;-75
2022/11/04 01:08:34;;;;;;;;;;;18.00;55.10;;;;;;5056990;28;19992;-75
2022/11/04 01:11:01;;;;;;;;;;;18.00;55.20;;;;;;5055181;28;19908;-75
2022/11/04 01:13:26;;;;;;;;;;;18.00;55.20;;;;;;5055104;28;19957;-75
2022/11/04 01:15:51;;;;;;;;;;;18.00;55.30;;;;;;5055526;28;19909;-75
2022/11/04 01:18:17;;;;;;;;;;;18.00;55.30;;;;;;5056405;28;19917;-75
2022/11/04 01:20:42;;;;;;;;;;;18.00;55.20;;;;;;5056619;28;20007;-75
2022/11/04 01:23:08;;;;;;;;;;;18.00;55.90;;;;;;5055171;28;19909;-75
2022/11/04 01:25:33;;;;;;;;;;;18.00;55.20;;;;;;5055010;28;19913;-75
2022/11/04 01:27:59;;;;;;;;;;;18.00;55.20;;;;;;5054303;28;19920;-75
2022/11/04 01:30:24;;;;;;;;;;;18.00;55.20;;;;;;5056579;28;19908;-75
2022/11/04 01:32:50;;;;;;;;;;;18.00;55.20;;;;;;5038398;28;19909;-75
2022/11/04 01:35:15;;;;;;;;;;;18.00;55.20;;;;;;5056325;28;19999;-75
2022/11/04 01:37:40;;;;;;;;;;;18.00;55.20;;;;;;5055133;28;19912;-74
2022/11/04 01:40:06;;;;;;;;;;;18.00;55.20;;;;;;5055035;28;19913;-74
2022/11/04 01:42:32;;;;;;;;;;;18.00;55.20;;;;;;5054431;28;19908;-75
2022/11/04 01:44:58;;;;;;;;;;;18.00;55.20;;;;;;5054459;28;19939;-75
2022/11/04 01:47:25;;;;;;;;;;;18.00;55.20;;;;;;5054777;28;20269;-75
2022/11/04 01:49:52;;;;;;;;;;;18.00;55.20;;;;;;5054817;28;19916;-75
2022/11/04 01:52:23;;;;;;;;;;;18.00;55.30;;;;;;5054663;28;19912;-75
2022/11/04 01:54:48;;;;;;;;;;;18.00;55.20;;;;;;5054976;28;19909;-75
2022/11/04 01:57:17;;;;;;;;;;;18.00;55.20;;;;;;5037818;28;20322;-74
2022/11/04 01:59:42;;;;;;;;;;;18.00;55.20;;;;;;5037617;28;19916;-74
2022/11/04 02:02:08;;;;;;;;;;;18.00;55.40;;;;;;5055809;28;19909;-74
2022/11/04 02:04:33;;;;;;;;;;;18.00;55.40;;;;;;5055464;28;19977;-74
2022/11/04 02:06:59;;;;;;;;;;;18.00;55.40;;;;;;5055840;28;20387;-74
2022/11/04 02:09:26;;;;;;;;;;;18.00;55.40;;;;;;5069437;28;19909;-74
2022/11/04 02:14:35;;;;;;;;;;;18.00;55.40;;;;;;5075141;28;20410;-75
2022/11/04 02:17:07;;;;;;;;;;;18.00;55.40;;;;;;5074259;28;19955;-75
2022/11/04 02:19:39;;;;;;;;;;;18.00;55.40;;;;;;5074112;28;20397;-75
2022/11/04 02:22:16;;;;;;;;;;;18.00;55.40;;;;;;5075412;28;19953;-75
2022/11/04 02:24:53;;;;;;;;;;;18.00;55.40;;;;;;5074106;28;19912;-75
2022/11/04 02:27:29;;;;;;;;;;;18.00;55.40;;;;;;5060589;28;19962;-75
2022/11/04 02:29:57;;;;;;;;;;;18.00;55.50;;;;;;5036987;28;19908;-75
2022/11/04 02:32:38;;;;;;;;;;;17.90;55.70;;;;;;5055214;28;20380;-75
2022/11/04 02:35:06;;;;;;;;;;;17.90;55.70;;;;;;5054112;28;19909;-74
2022/11/04 02:37:37;;;;;;;;;;;17.80;55.70;;;;;;5055221;28;19951;-75
2022/11/04 02:40:05;;;;;;;;;;;17.90;55.80;;;;;;5037351;28;19992;-75
2022/11/04 02:42:39;;;;;;;;;;;17.90;55.80;;;;;;5053384;28;19909;-75
2022/11/04 02:45:16;;;;;;;;;;;17.90;55.80;;;;;;5053654;28;19974;-75
2022/11/04 02:47:43;;;;;;;;;;;17.90;55.80;;;;;;5036913;28;19967;-74
2022/11/04 02:50:08;;;;;;;;;;;17.90;55.70;;;;;;5053786;28;19908;-74
2022/11/04 02:52:48;;;;;;;;;;;17.90;55.60;;;;;;5054779;28;19909;-74
2022/11/04 02:55:16;;;;;;;;;;;17.90;55.60;;;;;;5053706;28;19909;-74
2022/11/04 02:57:41;;;;;;;;;;;18.00;55.70;;;;;;5052506;28;19909;-74
2022/11/04 03:00:08;;;;;;;;;;;18.00;55.70;;;;;;5053585;28;20387;-74
2022/11/04 03:02:37;;;;;;;;;;;18.00;55.60;;;;;;5036695;28;19909;-74
2022/11/04 03:05:03;;;;;;;;;;;18.00;55.60;;;;;;5053286;28;19927;-74
2022/11/04 03:07:30;;;;;;;;;;;18.00;55.60;;;;;;5054493;28;19909;-74
2022/11/04 03:09:57;;;;;;;;;;;18.00;55.50;;;;;;5053618;28;19908;-74
2022/11/04 03:12:24;;;;;;;;;;;18.00;55.50;;;;;;5054025;28;19909;-74
2022/11/04 03:14:53;;;;;;;;;;;18.00;55.50;;;;;;5052736;28;20372;-74
2022/11/04 03:17:20;;;;;;;;;;;18.00;55.50;;;;;;5036556;28;20008;-74
2022/11/04 03:19:56;;;;;;;;;;;18.00;55.60;;;;;;5053031;28;19912;-74
2022/11/04 03:22:22;;;;;;;;;;;18.00;55.50;;;;;;5054360;28;19959;-74
2022/11/04 03:24:47;;;;;;;;;;;18.00;55.60;;;;;;5053043;28;19928;-74
2022/11/04 03:27:19;;;;;;;;;;;18.00;55.70;;;;;;5035335;28;19909;-74
2022/11/04 03:29:47;;;;;;;;;;;18.00;55.70;;;;;;5053704;28;19916;-74
2022/11/04 03:32:21;;;;;;;;;;;18.00;55.70;;;;;;5052857;28;19971;-74
2022/11/04 03:34:46;;;;;;;;;;;17.90;55.80;;;;;;5052847;28;19944;-74
2022/11/04 03:37:12;;;;;;;;;;;17.90;55.90;;;;;;5052762;28;19955;-74
2022/11/04 03:39:38;;;;;;;;;;;17.90;56.00;;;;;;5053344;28;20352;-74
2022/11/04 03:42:18;;;;;;;;;;;17.90;56.00;;;;;;5053537;28;19996;-74
2022/11/04 03:44:47;;;;;;;;;;;18.00;56.00;;;;;;5059013;28;19951;-74
2022/11/04 03:47:13;;;;;;;;;;;17.90;56.00;;;;;;5048642;28;19909;-74
2022/11/04 03:49:39;;;;;;;;;;;17.90;56.00;;;;;;5052506;28;20278;-74
2022/11/04 03:52:04;;;;;;;;;;;17.90;56.00;;;;;;5052538;28;20357;-74
2022/11/04 03:54:34;;;;;;;;;;;17.90;56.00;;;;;;5035701;28;20455;-74
2022/11/04 03:57:07;;;;;;;;;;;17.90;56.10;;;;;;5052049;28;20364;-74
2022/11/04 03:59:32;;;;;;;;;;;17.90;56.10;;;;;;5035510;28;19909;-74
2022/11/04 04:01:59;;;;;;;;;;;17.90;56.20;;;;;;5053623;28;19915;-74
2022/11/04 04:04:28;;;;;;;;;;;17.90;56.30;;;;;;5052091;28;19943;-73
2022/11/04 04:06:56;;;;;;;;;;;17.90;56.30;;;;;;5052203;28;19909;-74
2022/11/04 04:09:24;;;;;;;;;;;17.90;56.20;;;;;;5046936;28;19952;-74
2022/11/04 04:11:49;;;;;;;;;;;17.90;56.20;;;;;;5068292;28;20394;-74
2022/11/04 04:14:39;;;;;;;;;;;17.90;56.30;;;;;;5053051;28;19940;-74
2022/11/04 04:17:13;;;;;;;;;;;17.90;56.30;;;;;;5053507;28;19996;-74
2022/11/04 04:19:38;;;;;;;;;;;17.90;56.30;;;;;;5068791;28;19913;-74
2022/11/04 04:22:06;;;;;;;;;;;17.90;56.30;;;;;;5068616;28;20398;-74
2022/11/04 04:27:32;;;;;;;;;;;17.90;56.40;;;;;;5052827;28;19963;-74
2022/11/04 04:29:58;;;;;;;;;;;17.90;56.50;;;;;;5051748;28;19912;-74
2022/11/04 04:32:23;;;;;;;;;;;17.90;56.40;;;;;;5051846;28;20349;-74
2022/11/04 04:34:49;;;;;;;;;;;18.00;56.40;;;;;;5053092;28;19909;-74
2022/11/04 04:37:20;;;;;;;;;;;18.00;56.40;;;;;;5051561;28;20007;-74
2022/11/04 04:45:29;;;;;;;;;;;17.90;56.50;;;;;;5072958;28;20391;-74
2022/11/04 04:47:54;;;;;;;;;;;17.90;56.60;;;;;;5071490;28;20372;-74
2022/11/04 04:50:20;;;;;;;;;;;17.90;56.50;;;;;;5071749;28;19908;-73
2022/11/04 04:52:46;;;;;;;;;;;17.90;56.60;;;;;;5071553;28;19908;-74
2022/11/04 04:55:12;;;;;;;;;;;17.90;56.60;;;;;;5071623;28;19909;-74
2022/11/04 04:57:38;;;;;;;;;;;17.90;56.60;;;;;;5050704;28;19920;-74
2022/11/04 05:00:04;;;;;;;;;;;17.90;56.60;;;;;;5051552;28;20399;-74
2022/11/04 05:02:29;;;;;;;;;;;18.00;56.60;;;;;;5034632;28;19963;-74
2022/11/04 05:04:55;;;;;;;;;;;18.00;56.60;;;;;;5052344;28;20269;-74
2022/11/04 05:07:21;;;;;;;;;;;18.00;56.60;;;;;;5051559;28;19978;-74
2022/11/04 05:09:46;;;;;;;;;;;18.00;56.60;;;;;;5052736;28;20372;-74
2022/11/04 05:12:11;;;;;;;;;;;18.00;56.40;;;;;;5071089;28;19963;-74
2022/11/04 05:14:37;;;;;;;;;;;17.90;56.50;;;;;;5071060;28;19920;-74
2022/11/04 05:17:02;;;;;;;;;;;17.90;56.40;;;;;;5072712;28;19909;-74
2022/11/04 05:19:28;;;;;;;;;;;18.00;56.60;;;;;;5072478;28;19958;-74
2022/11/04 05:21:53;;;;;;;;;;;18.00;56.60;;;;;;5072453;28;20360;-74
2022/11/04 05:24:19;;;;;;;;;;;17.90;56.50;;;;;;5072324;28;19934;-74
2022/11/04 05:26:44;;;;;;;;;;;17.90;56.50;;;;;;5072094;28;19958;-74
2022/11/04 05:29:11;;;;;;;;;;;18.00;56.60;;;;;;5072150;28;19916;-74
2022/11/04 05:31:36;;;;;;;;;;;18.00;56.50;;;;;;5072470;28;19962;-74
2022/11/04 05:34:03;;;;;;;;;;;17.90;56.50;;;;;;5054476;28;20283;-74
2022/11/04 05:36:28;;;;;;;;;;;17.90;56.50;;;;;;5072343;28;19908;-74
2022/11/04 05:38:57;;;;;;;;;;;17.90;56.60;;;;;;5070807;28;19909;-74
2022/11/04 05:41:25;;;;;;;;;;;17.90;56.50;;;;;;5070862;28;19914;-74
2022/11/04 05:43:51;;;;;;;;;;;17.90;56.40;;;;;;5070551;28;19916;-74
2022/11/04 05:46:17;;;;;;;;;;;17.90;56.40;;;;;;5067636;28;20279;-75
2022/11/04 05:48:42;;;;;;;;;;;17.90;56.40;;;;;;5034299;28;19908;-75
2022/11/04 05:51:11;;;;;;;;;;;17.90;56.40;;;;;;5054197;28;19963;-74
2022/11/04 05:53:36;;;;;;;;;;;17.90;56.40;;;;;;5054732;28;20291;-74
2022/11/04 05:56:02;;;;;;;;;;;17.90;56.50;;;;;;5037660;28;19916;-74
2022/11/04 05:58:27;;;;;;;;;;;17.90;56.50;;;;;;5054204;28;19913;-74
2022/11/04 06:00:53;;;;;;;;;;;17.90;56.50;;;;;;5055933;28;19909;-74
2022/11/04 06:03:18;;;;;;;;;;;17.90;56.50;;;;;;5055791;28;19916;-74
2022/11/04 06:05:43;;;;;;;;;;;17.80;56.50;;;;;;5055616;28;19928;-74
2022/11/04 06:08:09;;;;;;;;;;;17.90;56.60;;;;;;5042704;28;19908;-74
2022/11/04 06:10:34;;;;;;;;;;;17.90;56.50;;;;;;5074479;28;19999;-74
2022/11/04 06:13:00;;;;;;;;;;;17.90;56.40;;;;;;5073438;28;20386;-74
2022/11/04 06:15:25;;;;;;;;;;;17.90;56.40;;;;;;5074463;28;20391;-74
2022/11/04 06:17:51;;;;;;;;;;;17.90;56.50;;;;;;5074248;28;19908;-74
2022/11/04 06:20:16;;;;;;;;;;;17.90;56.50;;;;;;5075569;28;20007;-74
2022/11/04 06:22:42;;;;;;;;;;;17.90;56.50;;;;;;5074029;28;19908;-74
2022/11/04 06:25:08;;;;;;;;;;;17.90;56.50;;;;;;5072516;28;19923;-74
2022/11/04 06:27:33;;;;;;;;;;;17.90;56.40;;;;;;5070510;28;19909;-74
2022/11/04 06:29:59;;;;;;;;;;;17.90;56.40;;;;;;5053574;28;20368;-74
2022/11/04 06:32:24;;;;;;;;;;;17.90;56.40;;;;;;5037448;28;19916;-74
2022/11/04 06:34:50;;;;;;;;;;;17.90;56.40;;;;;;5055110;28;19909;-74
2022/11/04 06:37:15;;;;;;;;;;;17.90;56.40;;;;;;5055146;28;19909;-74
2022/11/04 06:39:40;;;;;;;;;;;17.90;56.40;;;;;;5037459;28;19909;-74
2022/11/04 06:42:06;;;;;;;;;;;17.90;56.30;;;;;;5036762;28;20287;-74
2022/11/04 06:44:33;;;;;;;;;;;17.90;56.40;;;;;;5053344;28;20356;-75
2022/11/04 06:46:58;;;;;;;;;;;17.80;56.30;;;;;;5053816;28;19912;-74
2022/11/04 06:49:24;;;;;;;;;;;17.80;56.40;;;;;;5054999;28;20422;-74
2022/11/04 06:51:50;;;;;;;;;;;17.80;56.40;;;;;;5055052;28;20454;-74
2022/11/04 06:54:16;;;;;;;;;;;17.80;56.30;;;;;;5037151;28;20068;-74
2022/11/04 06:56:41;;;;;;;;;;;17.90;56.40;;;;;;5053117;28;20415;-74
2022/11/04 06:59:07;;;;;;;;;;;17.90;56.30;;;;;;5053124;28;19920;-74
2022/11/04 07:01:34;;;;;;;;;;;17.90;56.20;;;;;;5052782;28;19909;-74
2022/11/04 07:04:00;;;;;;;;;;;17.90;56.20;;;;;;5036633;28;19916;-74
2022/11/04 07:06:25;;;;;;;;;;;17.90;56.10;;;;;;5054622;28;19905;-74
2022/11/04 07:08:51;;;;;;;;;;;17.90;56.10;;;;;;5053568;28;19935;-75
2022/11/04 07:11:18;;;;;;;;;;;17.90;56.10;;;;;;5052923;28;19919;-75
2022/11/04 07:13:44;;;;;;;;;;;17.90;56.10;;;;;;5036466;28;19952;-75
2022/11/04 07:16:09;;;;;;;;;;;17.90;56.20;;;;;;5053239;28;20438;-75
2022/11/04 07:18:35;;;;;;;;;;;17.90;56.20;;;;;;5053171;28;20426;-75
2022/11/04 07:21:00;;;;;;;;;;;17.90;56.10;;;;;;5053169;28;19909;-75
2022/11/04 07:23:26;;;;;;;;;;;17.90;56.10;;;;;;5036064;28;19916;-75
2022/11/04 07:25:53;;;;;;;;;;;17.90;56.10;;;;;;5052974;28;19935;-75
2022/11/04 07:28:19;;;;;;;;;;;17.90;56.10;;;;;;5052092;28;19913;-75
2022/11/04 07:30:44;;;;;;;;;;;17.90;56.20;;;;;;5054318;28;19962;-75
2022/11/04 07:33:09;;;;;;;;;;;17.90;56.30;;;;;;5052714;28;20280;-75
2022/11/04 07:35:35;;;;;;;;;;;17.80;56.20;;;;;;5036109;28;19909;-75
2022/11/04 07:38:02;;;;;;;;;;;17.80;56.30;;;;;;5036251;28;20361;-74
2022/11/04 07:40:28;;;;;;;;;;;17.80;56.20;;;;;;5054033;28;19955;-74
2022/11/04 07:42:54;;;;;;;;;;;17.80;56.20;;;;;;5053202;28;20007;-74
2022/11/04 07:45:19;;;;;;;;;;;17.90;56.30;;;;;;5052687;28;20379;-75
2022/11/04 07:47:45;;;;;;;;;;;17.90;56.30;;;;;;5052606;28;19909;-74
2022/11/04 07:50:10;;;;;;;;;;;17.80;56.20;;;;;;5052717;28;20371;-74
2022/11/04 07:52:35;;;;;;;;;;;17.90;56.20;;;;;;5053639;28;19908;-74
2022/11/04 07:55:01;;;;;;;;;;;17.80;56.20;;;;;;5052659;28;19915;-75
2022/11/04 07:57:27;;;;;;;;;;;17.80;56.20;;;;;;5051993;28;19947;-75
2022/11/04 07:59:52;;;;;;;;;;;17.80;56.20;;;;;;5052025;28;20376;-74
2022/11/04 08:02:18;;;;;;;;;;;17.80;56.20;;;;;;5052376;28;19916;-74
2022/11/04 08:04:43;;;;;;;;;;;17.80;56.20;;;;;;5053301;28;19927;-74
2022/11/04 08:07:09;;;;;;;;;;;17.90;56.30;;;;;;5052249;28;19956;-74
2022/11/04 08:09:35;;;;;;;;;;;17.90;56.30;;;;;;5053649;28;19959;-74
2022/11/04 08:12:01;;;;;;;;;;;17.90;56.20;;;;;;5053112;28;20439;-74
2022/11/04 08:14:26;;;;;;;;;;;17.80;56.20;;;;;;5051625;28;19991;-74
2022/11/04 08:16:52;;;;;;;;;;;17.90;56.30;;;;;;5051992;28;19908;-74
2022/11/04 08:19:17;;;;;;;;;;;17.80;56.20;;;;;;5051998;28;19913;-74
2022/11/04 08:21:43;;;;;;;;;;;17.80;56.20;;;;;;5052098;28;19915;-74
2022/11/04 08:24:08;;;;;;;;;;;17.80;56.20;;;;;;5035221;28;19925;-75
2022/11/04 08:26:33;;;;;;;;;;;17.80;56.20;;;;;;5051604;28;19909;-74
2022/11/04 08:29:01;;;;;;;;;;;17.80;56.20;;;;;;5051462;28;19916;-74
2022/11/04 08:31:29;;;;;;;;;;;17.80;56.30;;;;;;5053092;28;19909;-74
2022/11/04 08:33:55;;;;;;;;;;;17.80;56.30;;;;;;5035217;28;19916;-74
2022/11/04 08:36:22;;;;;;;;;;;17.80;56.30;;;;;;5051845;28;19909;-74
2022/11/04 08:38:48;;;;;;;;;;;17.80;56.30;;;;;;5045491;28;19920;-74
2022/11/04 08:41:14;;;;;;;;;;;17.80;56.30;;;;;;5072663;28;19913;-74
2022/11/04 08:43:39;;;;;;;;;;;17.80;56.40;;;;;;5072491;28;19932;-75
2022/11/04 08:46:05;;;;;;;;;;;17.80;56.40;;;;;;5056331;28;20372;-74
2022/11/04 08:48:31;;;;;;;;;;;17.80;56.30;;;;;;5056203;28;19919;-74
2022/11/04 08:50:57;;;;;;;;;;;17.80;56.20;;;;;;5056525;28;19943;-74
2022/11/04 08:53:23;;;;;;;;;;;17.80;56.20;;;;;;5073965;28;19908;-74
2022/11/04 08:55:48;;;;;;;;;;;17.80;56.20;;;;;;5055722;28;19915;-75
2022/11/04 08:58:14;;;;;;;;;;;17.80;56.30;;;;;;5071746;28;19947;-74
2022/11/04 09:00:40;;;;;;;;;;;17.80;56.30;;;;;;5072699;28;19977;-74
2022/11/04 09:03:06;;;;;;;;;;;17.80;56.20;;;;;;5055400;28;20371;-74
2022/11/04 09:05:32;;;;;;;;;;;17.90;56.20;;;;;;5072277;28;19989;-75
2022/11/04 09:07:59;;;;;;;;;;;17.90;56.10;;;;;;5055016;28;20358;-74
2022/11/04 09:10:25;;;;;;;;;;;17.90;56.10;;;;;;5055967;28;19909;-74
2022/11/04 09:12:50;;;;;;;;;;;17.90;56.10;;;;;;5070456;28;19909;-74
2022/11/04 09:15:16;;;;;;;;;;;17.90;56.10;;;;;;5063805;28;19908;-74
2022/11/04 09:17:43;;;;;;;;;;;17.90;56.00;;;;;;5052738;28;20356;-74
2022/11/04 09:20:09;;;;;;;;;;;17.90;56.00;;;;;;5051613;28;20291;-74
2022/11/04 09:22:34;;;;;;;;;;;17.90;56.00;;;;;;5052415;28;19908;-74
2022/11/04 09:25:00;;;;;;;;;;;17.90;56.00;;;;;;5069037;28;19956;-74
2022/11/04 09:27:25;;;;;;;;;;;18.00;56.00;;;;;;5055144;28;19983;-74
2022/11/04 09:29:50;;;;;;;;;;;18.00;56.00;;;;;;5056110;28;19962;-74
2022/11/04 09:32:16;;;;;;;;;;;17.90;56.00;;;;;;5056596;28;19955;-74
2022/11/04 09:34:41;;;;;;;;;;;17.90;56.00;;;;;;5055257;28;19991;-74
2022/11/04 09:37:07;;;;;;;;;;;17.90;56.10;;;;;;5071737;28;19916;-74
2022/11/04 09:39:32;;;;;;;;;;;17.90;56.00;;;;;;5038581;28;19920;-74
2022/11/04 09:41:59;;;;;;;;;;;17.90;56.10;;;;;;5056037;28;20448;-74
2022/11/04 09:44:43;;;;;;;;;;;17.90;56.00;;;;;;5055869;28;20283;-74
2022/11/04 09:47:10;;;;;;;;;;;17.90;56.10;;;;;;5054997;28;20254;-74
2022/11/04 09:49:37;;;;;;;;;;;17.90;56.10;;;;;;5054978;28;20372;-74
2022/11/04 09:52:05;;;;;;;;;;;17.90;56.20;;;;;;5056071;28;20387;-74
2022/11/04 09:54:37;;;;;;;;;;;17.80;56.20;;;;;;5054881;28;19909;-74
2022/11/04 09:57:02;;;;;;;;;;;17.80;56.20;;;;;;5054325;28;19909;-74
2022/11/04 09:59:28;;;;;;;;;;;17.80;56.20;;;;;;5037606;28;20361;-74
2022/11/04 10:02:10;;;;;;;;;;;17.90;56.30;;;;;;5054651;28;20022;-74
2022/11/04 10:04:51;;;;;;;;;;;17.90;56.20;;;;;;5054200;28;19924;-74
2022/11/04 10:07:20;;;;;;;;;;;17.90;56.10;;;;;;5054562;28;19958;-74
2022/11/04 10:09:50;;;;;;;;;;;17.90;56.10;;;;;;5056113;28;19909;-74
2022/11/04 10:12:20;;;;;;;;;;;17.90;56.20;;;;;;5037484;28;19909;-74
2022/11/04 10:14:52;;;;;;;;;;;17.90;56.30;;;;;;5055189;28;19916;-74
2022/11/04 10:17:26;;;;;;;;;;;17.90;56.30;;;;;;5055726;28;19909;-74
2022/11/04 10:20:11;;;;;;;;;;;17.90;56.30;;;;;;5055672;28;19909;-74
2022/11/04 10:22:50;;;;;;;;;;;17.90;56.30;;;;;;5055532;28;19909;-74
2022/11/04 10:25:20;;;;;;;;;;;17.90;56.20;;;;;;5054254;28;20400;-74
2022/11/04 10:27:45;;;;;;;;;;;17.90;56.20;;;;;;5053357;28;20291;-74
2022/11/04 10:30:11;;;;;;;;;;;17.90;56.20;;;;;;5054328;28;19913;-74
2022/11/04 10:32:48;;;;;;;;;;;17.90;56.20;;;;;;5055113;28;19913;-74
2022/11/04 10:35:15;;;;;;;;;;;17.90;56.20;;;;;;5039436;28;19916;-75
2022/11/04 10:37:41;;;;;;;;;;;17.90;56.20;;;;;;5052715;28;20293;-74
2022/11/04 10:40:09;;;;;;;;;;;17.90;56.20;;;;;;5053941;28;19996;-74
2022/11/04 10:42:35;;;;;;;;;;;17.90;56.30;;;;;;5054636;28;19909;-74
2022/11/04 10:45:00;;;;;;;;;;;17.90;56.30;;;;;;5036726;28;20118;-74
2022/11/04 10:47:41;;;;;;;;;;;17.90;56.30;;;;;;5053669;28;19995;-74
2022/11/04 10:50:13;;;;;;;;;;;17.90;56.20;;;;;;5055034;28;19912;-74
2022/11/04 10:52:39;;;;;;;;;;;17.90;56.30;;;;;;5036859;28;20027;-74
2022/11/04 10:55:13;;;;;;;;;;;17.90;56.30;;;;;;5053816;28;19952;-74
2022/11/04 10:57:39;;;;;;;;;;;17.90;56.40;;;;;;5036065;28;20396;-74
2022/11/04 11:00:05;;;;;;;;;;;17.90;56.50;;;;;;5054752;28;19952;-74
2022/11/04 11:02:36;;;;;;;;;;;17.90;56.50;;;;;;5054585;28;19959;-74
2022/11/04 11:05:11;;;;;;;;;;;17.90;56.40;;;;;;5053128;28;20380;-74
2022/11/04 11:07:36;;;;;;;;;;;17.90;56.50;;;;;;5053388;28;19909;-74
2022/11/04 11:10:02;;;;;;;;;;;17.90;56.60;;;;;;5053557;28;19909;-74
2022/11/04 11:12:29;;;;;;;;;;;17.90;56.60;;;;;;5036604;28;19919;-74
2022/11/04 11:14:55;;;;;;;;;;;17.90;56.60;;;;;;5038587;28;19909;-74
2022/11/04 11:17:21;;;;;;;;;;;17.90;56.60;;;;;;5054407;28;19974;-74
2022/11/04 11:19:57;;;;;;;;;;;17.90;56.50;;;;;;5036416;28;19940;-74
2022/11/04 11:22:33;;;;;;;;;;;17.90;56.50;;;;;;5054217;28;20323;-74
2022/11/04 11:25:11;;;;;;;;;;;17.90;56.50;;;;;;5052899;28;20011;-74
2022/11/04 11:27:36;;;;;;;;;;;18.00;56.50;;;;;;5052317;28;20332;-74
2022/11/04 11:30:02;;;;;;;;;;;18.00;56.30;;;;;;5052917;28;19915;-74
2022/11/04 11:32:31;;;;;;;;;;;18.10;56.30;;;;;;5054613;28;20004;-74
2022/11/04 11:35:00;;;;;;;;;;;18.10;56.20;;;;;;5052974;28;20003;-74
2022/11/04 11:37:26;;;;;;;;;;;18.10;56.20;;;;;;5053967;28;19912;-74
2022/11/04 11:39:51;;;;;;;;;;;18.10;56.20;;;;;;5071383;28;19915;-74
2022/11/04 11:42:19;;;;;;;;;;;18.10;56.20;;;;;;5072239;28;20329;-75
2022/11/04 11:44:48;;;;;;;;;;;18.10;56.20;;;;;;5073279;28;19944;-74
2022/11/04 11:47:21;;;;;;;;;;;18.10;56.30;;;;;;5072373;28;19915;-74
2022/11/04 11:49:46;;;;;;;;;;;18.10;56.40;;;;;;5073754;28;19959;-74
2022/11/04 11:52:16;;;;;;;;;;;18.10;56.40;;;;;;5072371;28;19908;-74
2022/11/04 11:54:43;;;;;;;;;;;18.10;56.40;;;;;;5072436;28;20388;-74
2022/11/04 11:57:14;;;;;;;;;;;18.00;56.40;;;;;;5072261;28;19961;-74
2022/11/04 11:59:44;;;;;;;;;;;18.10;56.40;;;;;;5055643;28;19954;-74
2022/11/04 12:02:18;;;;;;;;;;;18.00;56.40;;;;;;5072169;28;19915;-74
2022/11/04 12:04:44;;;;;;;;;;;18.00;56.40;;;;;;5063102;28;19928;-74
2022/11/04 12:07:19;;;;;;;;;;;18.00;56.40;;;;;;5052292;28;19913;-74
2022/11/04 12:09:53;;;;;;;;;;;18.00;56.50;;;;;;5069653;28;19908;-74
2022/11/04 12:12:29;;;;;;;;;;;18.00;56.60;;;;;;5072963;28;19908;-74
2022/11/04 12:14:58;;;;;;;;;;;18.00;56.60;;;;;;5071735;28;19915;-74
2022/11/04 12:17:33;;;;;;;;;;;18.00;56.60;;;;;;5071897;28;20419;-74
2022/11/04 12:20:08;;;;;;;;;;;18.00;56.60;;;;;;5071895;28;19916;-74
2022/11/04 12:22:52;;;;;;;;;;;18.00;56.50;;;;;;5073183;28;19958;-74
2022/11/04 12:25:31;;;;;;;;;;;18.00;56.50;;;;;;5073180;28;19913;-74
2022/11/04 12:28:25;;;;;;;;;;;18.00;56.50;;;;;;5096631;22;20007;-60
2022/11/04 12:30:51;;;;;;;;;;;18.00;56.60;;;;;;5055301;28;19935;-60
2022/11/04 12:33:20;;;;;;;;;;;18.00;57.30;;;;;;5071990;28;19909;-60
2022/11/04 12:36:01;;;;;;;;;;;18.00;56.70;;;;;;5080095;28;19916;-60
2022/11/04 12:38:30;;;;;;;;;;;18.00;56.70;;;;;;5077109;28;20368;-60
2022/11/04 12:40:56;;;;;;;;;;;18.00;56.70;;;;;;5055254;28;20371;-59
2022/11/04 12:43:26;;;;;;;;;;;18.00;56.70;;;;;;5071223;28;19988;-60
2022/11/04 12:46:01;;;;;;;;;;;18.00;56.70;;;;;;5071864;28;19915;-60
2022/11/04 12:48:27;;;;;;;;;;;18.00;56.60;;;;;;5071875;28;19908;-60
2022/11/04 12:51:04;;;;;;;;;;;18.10;56.50;;;;;;5071728;28;19965;-60
2022/11/04 12:53:36;;;;;;;;;;;18.10;56.40;;;;;;5054833;28;20015;-61
2022/11/04 12:56:05;;;;;;;;;;;18.20;56.40;;;;;;5071244;28;19919;-60
2022/11/04 12:58:38;;;;;;;;;;;18.20;56.50;;;;;;5071136;28;19908;-60
2022/11/04 13:01:08;;;;;;;;;;;18.10;56.40;;;;;;5071604;28;19915;-60
2022/11/04 13:03:36;;;;;;;;;;;18.10;56.40;;;;;;5071365;28;19916;-60
2022/11/04 13:06:03;;;;;;;;;;;18.10;56.50;;;;;;5063332;28;19961;-61
2022/11/04 13:08:43;;;;;;;;;;;18.10;56.60;;;;;;5109844;28;20393;-60
2022/11/04 13:11:21;;;;;;;;;;;18.10;56.50;;;;;;5074190;28;19908;-60
2022/11/04 13:13:52;;;;;;;;;;;18.10;56.70;;;;;;5099442;28;19957;-60
2022/11/04 13:16:17;;;;;;;;;;;18.00;57.20;;;;;;5091374;28;20398;-60
2022/11/04 13:18:44;;;;;;;;;;;18.00;56.60;;;;;;5109462;28;19908;-60
2022/11/04 13:21:15;;;;;;;;;;;18.00;56.70;;;;;;5091756;28;19915;-60
2022/11/04 13:23:44;;;;;;;;;;;18.00;56.60;;;;;;5091232;28;20383;-60
2022/11/04 13:26:10;;;;;;;;;;;18.10;56.70;;;;;;5088884;28;19967;-60
2022/11/04 13:28:39;;;;;;;;;;;18.10;56.70;;;;;;5070328;28;19963;-60
2022/11/04 13:31:06;;;;;;;;;;;18.00;56.60;;;;;;5054599;28;19969;-60
2022/11/04 13:33:50;;;;;;;;;;;18.00;56.70;;;;;;5054275;28;19983;-60
2022/11/04 13:36:21;;;;;;;;;;;18.00;56.80;;;;;;5088984;28;19999;-60
2022/11/04 13:38:50;;;;;;;;;;;18.00;56.90;;;;;;5062051;28;19996;-61
2022/11/04 13:41:31;;;;;;;;;;;17.90;56.90;;;;;;5040410;28;19912;-59
2022/11/04 13:43:59;;;;;;;;;;;17.90;57.00;;;;;;5057038;28;20290;-59
2022/11/04 13:46:32;;;;;;;;;;;17.90;57.00;;;;;;5075160;28;19977;-60
2022/11/04 13:49:00;;;;;;;;;;;17.90;57.00;;;;;;5075192;28;20379;-60
2022/11/04 13:51:40;;;;;;;;;;;17.90;56.90;;;;;;5075151;28;19995;-60
2022/11/04 13:54:29;;;;;;;;;;;17.90;57.00;;;;;;5057131;28;19912;-60
2022/11/04 13:57:02;;;;;;;;;;;17.90;57.00;;;;;;5043284;28;19955;-60
2022/11/04 13:59:28;;;;;;;;;;;18.00;57.00;;;;;;5040125;28;19908;-60
2022/11/04 14:02:12;;;;;;;;;;;18.00;56.90;;;;;;5057028;28;19909;-60
2022/11/04 14:04:41;;;;;;;;;;;18.00;56.90;;;;;;5074752;28;20353;-60
2022/11/04 14:07:10;;;;;;;;;;;18.00;57.00;;;;;;5056875;28;20437;-60
2022/11/04 14:09:42;;;;;;;;;;;18.00;57.00;;;;;;5053431;28;19961;-60
2022/11/04 14:12:10;;;;;;;;;;;18.00;57.00;;;;;;5074477;28;20359;-60
2022/11/04 14:14:41;;;;;;;;;;;17.90;57.00;;;;;;5074335;28;20383;-61
2022/11/04 14:17:25;;;;;;;;;;;17.90;57.00;;;;;;5074665;28;19908;-60
2022/11/04 14:19:54;;;;;;;;;;;17.90;57.00;;;;;;5074573;28;19908;-60
2022/11/04 14:22:20;;;;;;;;;;;17.90;57.00;;;;;;5073296;28;20015;-60
2022/11/04 14:24:52;;;;;;;;;;;18.00;57.00;;;;;;5074517;28;20058;-60
2022/11/04 14:27:25;;;;;;;;;;;18.00;57.00;;;;;;5072718;28;19956;-60
2022/11/04 14:29:51;;;;;;;;;;;18.00;57.00;;;;;;5074089;28;19908;-60
2022/11/04 14:32:24;;;;;;;;;;;17.90;57.00;;;;;;5074453;28;19909;-60
2022/11/04 14:34:55;;;;;;;;;;;17.90;57.10;;;;;;5073022;28;19954;-59
2022/11/04 14:37:22;;;;;;;;;;;17.90;57.10;;;;;;5056370;28;19912;-59
2022/11/04 14:39:52;;;;;;;;;;;17.90;57.10;;;;;;5056790;28;19909;-60
2022/11/04 14:42:18;;;;;;;;;;;17.90;57.10;;;;;;5073975;28;19919;-60
2022/11/04 14:44:43;;;;;;;;;;;17.90;57.10;;;;;;5070588;28;19999;-60
2022/11/04 14:47:14;;;;;;;;;;;17.90;57.10;;;;;;5055914;28;20003;-60
2022/11/04 14:49:58;;;;;;;;;;;17.90;57.20;;;;;;5055120;28;20283;-60